• Join FlightAware (Why Join?)
  • Login
  • US Flag 
07:20PM EDT


 

Airport Tracker/Info


-or-


 

Live Flight TrackerFlight Track Log ✈ N781BG ✈ 08-May-2013 ✈ KLAF - 1G0

Flight Track Log - Related Links

Times and Time Zones

All times are in EDT time to prevent confusion due to time zone crossing. See the N781BG flight status page for this flight to view local times or setup timezone preferences in your user account.

Time Position Orientation Groundspeed Altitude Reporting Facility
EDT Latitude Longitude Course Direction KTS MPH feet Rate Location/Type
06:05PM 40.4381 -86.9325 69° East 95 109 2,100  Level Chicago Center
06:06PM 40.4453 -86.9083 69° East 93 107 2,500 540 Climbing Chicago Center
06:07PM 40.4581 -86.8750 63° Northeast 84 97 3,100 540 Climbing Chicago Center
06:08PM 40.4664 -86.8522 64° Northeast 86 99 3,600 540 Climbing Chicago Center
06:09PM 40.4717 -86.8225 77° East 83 96 4,200 480 Climbing Chicago Center
06:10PM 40.4808 -86.7958 66° East 82 94 4,600 360 Climbing Chicago Center
06:11PM 40.4903 -86.7664 67° East 81 93 5,000 180 Climbing Chicago Center
06:12PM 40.5019 -86.7344 64° Northeast 104 120 5,000  Level Chicago Center
06:12PM 40.5050 -86.7239 69° East 92 106 5,000  Level Chicago Center
06:13PM 40.5119 -86.6911 74° East 116 133 5,000  Level Chicago Center
06:13PM 40.5161 -86.6800 64° Northeast 116 133 5,000  Level Chicago Center
06:14PM 40.5239 -86.6508 71° East 121 139 5,000  Level Chicago Center
06:14PM 40.5289 -86.6386 62° Northeast 122 140 5,000 -120 Level Chicago Center
06:15PM 40.5381 -86.6081 68° East 124 143 4,900  Descending Chicago Center
06:15PM 40.5425 -86.5972 62° Northeast 123 142 5,000 60 Climbing Chicago Center
06:16PM 40.5497 -86.5678 72° East 124 143 5,000  Level Chicago Center
06:16PM 40.5550 -86.5558 60° Northeast 125 144 5,000 -120 Level Chicago Center
06:17PM 40.5661 -86.5222 66° East 126 145 4,900 -120 Descending Chicago Center
06:17PM 40.5714 -86.5142 49° Northeast 127 146 4,900 -120 Level Chicago Center
06:18PM 40.5822 -86.4794 68° East 124 143 4,800 -120 Descending Chicago Center
06:18PM 40.5875 -86.4636 66° East 126 145 4,800 60 Level Chicago Center
06:19PM 40.5919 -86.4389 77° East 124 143 4,900 180 Climbing Chicago Center
06:19PM 40.5975 -86.4217 67° East 124 143 5,000 60 Climbing Chicago Center
06:20PM 40.6039 -86.3958 72° East 120 138 5,000  Level Chicago Center
06:20PM 40.6083 -86.3811 68° East 120 138 5,000  Level Chicago Center
06:21PM 40.6156 -86.3556 70° East 124 143 5,000  Level Chicago Center
06:21PM 40.6200 -86.3383 71° East 123 142 5,000  Level Chicago Center
06:22PM 40.6275 -86.3122 69° East 123 142 5,000 -120 Level Chicago Center
06:22PM 40.6317 -86.2961 71° East 123 142 4,900 -120 Descending Chicago Center
06:23PM 40.6372 -86.2717 73° East 122 140 4,900 -120 Level Chicago Center
06:23PM 40.6456 -86.2467 66° East 122 140 4,800  Descending Chicago Center
06:24PM 40.6492 -86.2258 77° East 123 142 4,900 60 Climbing Chicago Center
06:24PM 40.6569 -86.2036 65° Northeast 123 142 4,900  Level Chicago Center
06:25PM 40.6628 -86.1883 63° Northeast 122 140 4,900 180 Level Chicago Center
06:25PM 40.6703 -86.1639 68° East 122 140 5,100 60 Climbing Chicago Center
06:26PM 40.6767 -86.1453 66° East 121 139 5,000 -120 Descending Chicago Center
06:26PM 40.6822 -86.1233 72° East 120 138 5,000 -120 Level Chicago Center
06:27PM 40.6886 -86.1019 68° East 129 148 4,900  Descending Chicago Center
06:27PM 40.6964 -86.0778 67° East 124 143 5,000 60 Climbing Chicago Center
06:28PM 40.7025 -86.0589 67° East 123 142 5,000  Level Chicago Center
06:28PM 40.7089 -86.0356 70° East 125 144 5,000  Level Chicago Center
06:29PM 40.7142 -86.0183 68° East 124 143 5,000  Level Chicago Center
06:29PM 40.7219 -85.9936 67° East 124 143 5,000  Level Chicago Center
06:30PM 40.7281 -85.9753 66° East 125 144 5,000  Level Chicago Center
06:31PM 40.7347 -85.9511 70° East 125 144 5,000  Level Chicago Center
06:32PM 40.7508 -85.9006 67° East 126 145 5,000  Level Chicago Center
06:33PM 40.7647 -85.8586 66° East 125 144 5,000  Level Chicago Center
06:34PM 40.7769 -85.8172 69° East 123 142 5,000 -60 Level Chicago Center
06:35PM 40.7908 -85.7739 67° East 126 145 4,900  Descending Chicago Center
06:36PM 40.8044 -85.7267 69° East 123 142 5,000  Climbing Chicago Center
06:37PM 40.8169 -85.6819 70° East 123 142 5,000  Level Chicago Center
06:38PM 40.8283 -85.6392 71° East 124 143 5,000  Level Chicago Center
06:39PM 40.8403 -85.5956 70° East 125 144 5,000  Level Chicago Center
06:40PM 40.8522 -85.5536 69° East 123 142 5,000 -60 Level Chicago Center
06:41PM 40.8642 -85.5111 70° East 123 142 4,900 -60 Descending Chicago Center
06:42PM 40.8758 -85.4711 69° East 121 139 4,900  Level Chicago Center
06:43PM 40.8911 -85.4219 68° East 120 138 5,000  Climbing Chicago Center
06:44PM 40.9044 -85.3806 67° East 121 139 5,000 -120 Level Chicago Center
06:45PM 40.9158 -85.3392 70° East 121 139 4,800 -60 Descending Chicago Center
06:46PM 40.9267 -85.2981 71° East 121 139 4,900 60 Climbing Chicago Center
06:47PM 40.9381 -85.2589 69° East 118 136 5,000  Climbing Chicago Center
06:48PM 40.9533 -85.2114 67° East 117 135 5,000  Level Chicago Center
06:49PM 40.9636 -85.1708 71° East 117 135 5,000  Level Chicago Center
06:50PM 40.9736 -85.1297 72° East 117 135 5,000  Level Chicago Center
06:51PM 40.9869 -85.0881 67° East 119 137 5,000  Level Chicago Center
06:52PM 41.0000 -85.0469 67° East 121 139 5,000  Level Chicago Center
06:53PM 41.0094 -85.0033 74° East 122 140 5,000 -60 Level Chicago Center
06:54PM 41.0231 -84.9542 70° East 121 139 4,900 -60 Descending Chicago Center
06:55PM 41.0350 -84.9136 69° East 120 138 4,900 60 Level Chicago Center
06:56PM 41.0444 -84.8736 73° East 118 136 5,100  Climbing Chicago Center
06:57PM 41.0561 -84.8336 69° East 117 135 5,000 -60 Descending Chicago Center
06:58PM 41.0683 -84.7903 69° East 120 138 5,000  Level Chicago Center
06:59PM 41.0831 -84.7408 68° East 121 139 5,000  Level Chicago Center
07:01PM 41.0956 -84.6992 68° East 121 139 5,000 -60 Level Chicago Center
07:02PM 41.1044 -84.6553 75° East 123 142 4,900  Descending Chicago Center
07:03PM 41.1175 -84.6242 61° Northeast 113 130 5,000 -60 Climbing Chicago Center
07:04PM 41.1278 -84.5922 67° East 102 117 4,800  Descending Chicago Center
07:05PM 41.1378 -84.5603 67° East 97 112 5,000 60 Climbing Chicago Center
07:06PM 41.1514 -84.5144 68° East 102 117 5,000 -60 Level Chicago Center
07:07PM 41.1636 -84.4725 69° East 111 128 4,900  Descending Chicago Center
07:08PM 41.1761 -84.4331 67° East 114 131 5,000 -60 Climbing Chicago Center
07:09PM 41.1942 -84.3956 57° Northeast 116 133 4,800 -60 Descending Chicago Center
07:10PM 41.2100 -84.3578 61° Northeast 118 136 4,900 -60 Climbing Chicago Center
07:11PM 41.2300 -84.3153 58° Northeast 116 133 4,700 -480 Descending Chicago Center
07:12PM 41.2464 -84.2792 59° Northeast 115 132 4,000 -660 Descending Chicago Center
07:13PM 41.2622 -84.2417 61° Northeast 116 133 3,400 -480 Descending Chicago Center
07:14PM 41.2794 -84.2036 59° Northeast 114 131 3,100 -240 Descending Chicago Center
07:15PM 41.2931 -84.1664 64° Northeast 114 131 3,000 -120 Descending Chicago Center